Time;durP1;ratioP1;P1;durP2;ratioP2;P2;SDS_P1;SDS_P2;PMS_P1;PMS_P2;Temp;Humidity;BMP_temperature;BMP_pressure;BME280_temperature;BME280_humidity;BME280_pressure;Samples;Min_cycle;Max_cycle;Signal;HPM_P1;HPM_P2
2022/06/23 00:01:01;;;;;;;13.83;2.93;;;;;;;19.16;nan;101259.63;6108715;23;20445;-95
2022/06/23 00:03:37;;;;;;;13.47;3.10;;;;;;;19.01;nan;101267.53;6133170;23;20412;-93
2022/06/23 00:06:07;;;;;;;17.57;3.40;;;;;;;18.90;nan;101254.47;6108748;23;20407;-93
2022/06/23 00:09:27;;;;;;;17.03;3.90;;;;;;;18.82;nan;101265.91;6109031;23;20896;-94
2022/06/23 00:11:56;;;;;;;16.37;3.00;;;;;;;18.74;nan;101252.38;6156558;23;20405;-93
2022/06/23 00:18:24;;;;;;;10.97;3.00;;;;;;;18.50;nan;101241.19;6159076;23;20375;-95
2022/06/23 00:24:25;;;;;;;12.23;2.23;;;;;;;18.43;nan;101232.13;6172237;23;20511;-93
2022/06/23 00:33:58;;;;;;;13.90;3.00;;;;;;;18.16;nan;101230.78;6188761;23;20364;-93
2022/06/23 00:36:32;;;;;;;20.87;2.73;;;;;;;18.13;nan;101237.63;6114256;23;20408;-93
2022/06/23 00:39:42;;;;;;;20.33;2.80;;;;;;;18.05;nan;101228.81;6162963;23;20716;-94
2022/06/23 00:42:33;;;;;;;7.87;2.40;;;;;;;18.01;nan;101235.88;6044691;23;20450;-93
2022/06/23 00:45:09;;;;;;;10.93;2.00;;;;;;;18.02;nan;101240.31;6001224;23;20491;-93
2022/06/23 00:51:57;;;;;;;14.70;2.90;;;;;;;17.87;nan;101243.47;6175971;23;20387;-95
2022/06/23 00:54:34;;;;;;;13.30;2.60;;;;;;;17.81;nan;101234.19;6161742;23;20430;-95
2022/06/23 01:00:51;;;;;;;11.27;2.90;;;;;;;17.68;nan;101236.25;6187978;23;20531;-95
2022/06/23 01:03:37;;;;;;;15.87;2.43;;;;;;;17.67;nan;101243.69;6114294;23;20404;-94
2022/06/23 01:06:36;;;;;;;13.80;2.60;;;;;;;17.62;nan;101237.97;6114342;23;20891;-94
2022/06/23 01:13:12;;;;;;;16.40;2.77;;;;;;;17.56;nan;101236.94;6188109;23;20407;-94
2022/06/23 01:19:38;;;;;;;14.30;2.23;;;;;;;17.52;nan;101226.56;6187130;23;20420;-94
2022/06/23 01:22:21;;;;;;;16.63;3.20;;;;;;;17.49;nan;101229.81;6137104;23;20440;-95
2022/06/23 01:24:58;;;;;;;12.40;2.10;;;;;;;17.47;nan;101227.28;6131932;23;20488;-94
2022/06/23 01:34:46;;;;;;;26.23;3.43;;;;;;;17.30;nan;101226.16;6157741;23;20851;-93
2022/06/23 01:44:42;;;;;;;10.80;2.57;;;;;;;17.10;nan;101209.75;6157930;23;20765;-93
2022/06/23 01:47:55;;;;;;;18.13;2.87;;;;;;;17.05;nan;101223.41;6131735;23;20413;-94
2022/06/23 01:50:42;;;;;;;20.27;3.23;;;;;;;16.97;nan;101214.53;6156042;23;20443;-93
2022/06/23 01:53:29;;;;;;;20.30;2.90;;;;;;;16.93;nan;101219.69;6131600;23;20404;-93
2022/06/23 02:03:08;;;;;;;17.27;2.53;;;;;;;16.82;nan;101207.41;6157389;23;20448;-93
2022/06/23 02:09:50;;;;;;;17.70;2.73;;;;;;;16.69;nan;101215.81;6157433;23;20420;-94
2022/06/23 02:12:41;;;;;;;9.43;2.37;;;;;;;16.65;nan;101211.78;6111388;23;20427;-93
2022/06/23 02:18:55;;;;;;;7.17;2.00;;;;;;;16.53;nan;101235.63;6157499;23;20863;-94
2022/06/23 02:21:47;;;;;;;12.60;2.43;;;;;;;16.43;nan;101227.81;6132319;23;20939;-95
2022/06/23 02:24:24;;;;;;;15.03;2.20;;;;;;;16.48;nan;101235.44;6135034;23;20434;-93
2022/06/23 02:27:32;;;;;;;19.70;2.07;;;;;;;16.38;nan;101227.63;6131884;23;20408;-94
2022/06/23 02:30:29;;;;;;;12.90;2.37;;;;;;;16.39;nan;101232.06;6135173;23;20420;-93
2022/06/23 02:37:06;;;;;;;8.77;1.97;;;;;;;16.39;nan;101218.28;6156929;23;20469;-94
2022/06/23 02:42:47;;;;;;;10.83;2.40;;;;;;;16.41;nan;101231.84;6159223;23;20444;-93
2022/06/23 02:45:53;;;;;;;11.50;1.87;;;;;;;16.37;nan;101228.69;6110739;23;20385;-93
2022/06/23 02:55:56;;;;;;;15.20;2.23;;;;;;;16.29;nan;101215.16;6069422;23;20730;-94
2022/06/23 02:58:47;;;;;;;13.63;2.70;;;;;;;16.29;nan;101217.06;6046226;23;20422;-93
2022/06/23 03:01:56;;;;;;;9.60;2.63;;;;;;;16.30;nan;101219.63;6024624;23;20443;-94
2022/06/23 03:04:29;;;;;;;8.43;2.60;;;;;;;16.31;nan;101214.94;6045478;23;20416;-88
2022/06/23 03:07:03;;;;;;;13.00;2.97;;;;;;;16.31;nan;101221.31;6117573;23;20405;-88
2022/06/23 03:09:31;;;;;;;18.60;2.50;;;;;;;16.30;nan;101216.84;6132375;23;20782;-87
2022/06/23 03:12:19;;;;;;;8.97;2.17;;;;;;;16.31;nan;101225.97;6158148;23;20413;-88
2022/06/23 03:15:11;;;;;;;12.63;2.60;;;;;;;16.32;nan;101213.88;6110474;23;20397;-87
2022/06/23 03:18:01;;;;;;;11.87;2.37;;;;;;;16.28;nan;101218.97;6158006;23;20930;-88
2022/06/23 03:20:34;;;;;;;16.97;2.53;;;;;;;16.27;nan;101221.97;6132397;23;20409;-88
2022/06/23 03:23:24;;;;;;;10.73;2.80;;;;;;;16.28;nan;101220.91;6156337;23;20448;-93
2022/06/23 03:37:28;;;;;;;14.30;2.33;;;;;;;16.39;nan;101215.50;6159002;23;20372;-94
2022/06/23 03:47:06;;;;;;;14.80;2.50;;;;;;;16.47;nan;101209.75;6159049;23;20493;-94
2022/06/23 03:53:30;;;;;;;14.20;2.63;;;;;;;16.39;nan;101207.25;6186059;23;20404;-91
2022/06/23 04:00:05;;;;;;;9.50;1.90;;;;;;;16.45;nan;101211.88;6186230;23;20497;-93
2022/06/23 04:02:44;;;;;;;13.73;2.67;;;;;;;16.44;nan;101207.44;6184842;23;20432;-93
2022/06/23 04:05:19;;;;;;;14.57;2.87;;;;;;;16.46;nan;101221.84;6137370;23;20469;-92
2022/06/23 04:07:52;;;;;;;11.10;2.60;;;;;;;16.45;nan;101220.16;6137319;23;20464;-93
2022/06/23 04:10:32;;;;;;;14.27;2.90;;;;;;;16.48;nan;101214.19;6137372;23;20420;-94
2022/06/23 04:13:31;;;;;;;15.93;2.50;;;;;;;16.48;nan;101229.91;6142280;23;20516;-93
2022/06/23 04:16:10;;;;;;;8.23;2.10;;;;;;;16.46;nan;101229.28;6133538;23;20400;-93
2022/06/23 04:18:44;;;;;;;12.27;2.83;;;;;;;16.44;nan;101231.41;6132655;23;20412;-93
2022/06/23 04:21:45;;;;;;;12.00;2.60;;;;;;;16.50;nan;101238.81;6132667;23;20417;-94
2022/06/23 04:24:21;;;;;;;7.77;2.13;;;;;;;16.44;nan;101226.75;6132510;23;20446;-94
2022/06/23 04:27:31;;;;;;;19.10;3.10;;;;;;;16.50;nan;101225.88;6109778;23;20412;-94
2022/06/23 04:30:27;;;;;;;15.43;2.57;;;;;;;16.54;nan;101229.88;6131793;23;20412;-93
2022/06/23 04:33:07;;;;;;;13.33;2.60;;;;;;;16.56;nan;101226.88;6134949;23;20412;-93
2022/06/23 04:39:06;;;;;;;14.73;3.07;;;;;;;16.50;nan;101225.03;6158630;23;20413;-95
2022/06/23 04:42:16;;;;;;;15.77;2.53;;;;;;;16.52;nan;101234.78;6133721;23;20951;-93
2022/06/23 04:48:39;;;;;;;15.67;2.80;;;;;;;16.49;nan;101229.69;6159123;23;20699;-95
2022/06/23 04:51:52;;;;;;;12.53;2.63;;;;;;;16.54;nan;101240.94;6132986;23;20416;-93
2022/06/23 04:54:46;;;;;;;17.33;3.23;;;;;;;16.51;nan;101238.59;6153892;23;20405;-94
2022/06/23 05:00:55;;;;;;;11.70;2.63;;;;;;;16.48;nan;101239.03;6158227;23;20412;-93
2022/06/23 05:03:44;;;;;;;7.70;2.60;;;;;;;16.47;nan;101251.13;6108805;23;20781;-94
2022/06/23 05:07:04;;;;;;;9.83;2.67;;;;;;;16.47;nan;101253.06;6133260;23;20779;-93
2022/06/23 05:09:41;;;;;;;12.27;3.30;;;;;;;16.45;nan;101247.75;6156676;23;20413;-93
2022/06/23 05:12:31;;;;;;;15.27;2.93;;;;;;;16.45;nan;101245.00;6107292;23;20412;-88
2022/06/23 05:15:05;;;;;;;9.63;2.57;;;;;;;16.44;nan;101251.56;6131427;23;20413;-87
2022/06/23 05:17:34;;;;;;;11.70;2.67;;;;;;;16.43;nan;101252.63;6107984;23;20405;-88
2022/06/23 05:20:05;;;;;;;14.40;2.47;;;;;;;16.42;nan;101255.63;6130930;23;20405;-88
2022/06/23 05:22:37;;;;;;;13.97;2.97;;;;;;;16.42;nan;101259.22;6155968;23;20444;-87
2022/06/23 05:25:28;;;;;;;5.53;1.90;;;;;;;16.41;nan;101260.28;6178703;23;20436;-88
2022/06/23 05:27:56;;;;;;;12.73;2.70;;;;;;;16.35;nan;101244.63;6160751;23;20479;-87
2022/06/23 05:30:40;;;;;;;11.80;3.10;;;;;;;16.36;nan;101254.56;6112095;23;20404;-88
2022/06/23 05:33:17;;;;;;;10.37;2.53;;;;;;;16.39;nan;101267.94;6137163;23;20716;-87
2022/06/23 05:35:53;;;;;;;12.20;2.60;;;;;;;16.32;nan;101252.50;6137183;23;20479;-88
2022/06/23 05:38:37;;;;;;;12.80;2.70;;;;;;;16.43;nan;101274.72;6161432;23;20949;-88
2022/06/23 05:41:16;;;;;;;12.33;3.27;;;;;;;16.43;nan;101258.16;6136689;23;20419;-94
2022/06/23 05:43:47;;;;;;;7.70;2.60;;;;;;;16.44;nan;101268.13;6138580;23;20978;-93
2022/06/23 05:46:47;;;;;;;8.40;2.07;;;;;;;16.45;nan;101271.75;6114103;23;20458;-93
2022/06/23 05:49:31;;;;;;;7.43;2.07;;;;;;;16.39;nan;101262.41;6136915;23;20407;-92
2022/06/23 05:52:12;;;;;;;16.50;3.40;;;;;;;16.45;nan;101272.59;6113113;23;20426;-93
2022/06/23 05:55:37;;;;;;;7.90;2.27;;;;;;;16.48;nan;101269.38;6118989;23;20414;-96
2022/06/23 05:58:13;;;;;;;15.23;2.93;;;;;;;16.53;nan;101269.59;6074461;23;20418;-94
2022/06/23 06:01:10;;;;;;;8.53;2.80;;;;;;;16.55;nan;101278.47;6049662;23;21002;-95
2022/06/23 06:04:00;;;;;;;19.10;3.40;;;;;;;16.61;nan;101275.91;6024806;23;20529;-90
2022/06/23 06:06:29;;;;;;;15.00;3.03;;;;;;;16.72;nan;101283.53;6095245;23;20413;-88
2022/06/23 06:11:50;;;;;;;13.00;3.23;;;;;;;16.82;nan;101279.19;6057356;23;20487;-93
2022/06/23 06:58:01;;;;;;;13.83;2.10;;;;;;;18.49;nan;101305.94;6186142;23;20431;-94
2022/06/23 07:01:06;;;;;;;16.90;2.40;;;;;;;18.57;nan;101299.25;6114185;23;20532;-95
2022/06/23 07:03:44;;;;;;;15.13;2.90;;;;;;;18.75;nan;101306.69;6160945;23;20443;-94
2022/06/23 07:33:57;;;;;;;14.43;2.60;;;;;;;20.08;nan;101340.38;6190878;23;20839;-95
2022/06/23 07:40:23;;;;;;;23.07;2.90;;;;;;;20.31;nan;101315.38;6194245;23;20889;-96
2022/06/23 22:18:27;;;;;;;5.33;2.60;;;;;;;20.21;nan;101658.50;6172984;23;20522;-93
2022/06/23 22:28:01;;;;;;;2.40;1.00;;;;;;;20.19;nan;101657.94;6185868;23;20404;-95
2022/06/23 22:31:03;;;;;;;3.87;1.10;;;;;;;20.17;nan;101654.53;6160515;23;20463;-92
2022/06/23 22:33:45;;;;;;;5.20;1.27;;;;;;;20.14;nan;101657.78;6161434;23;20412;-93
2022/06/23 22:36:21;;;;;;;6.13;1.30;;;;;;;20.10;nan;101657.41;6137569;23;20491;-91
2022/06/23 22:39:03;;;;;;;3.37;1.33;;;;;;;20.07;nan;101652.31;6160997;23;20891;-94
2022/06/23 22:42:04;;;;;;;10.20;1.23;;;;;;;20.05;nan;101646.16;6136232;23;20757;-93
2022/06/23 22:48:25;;;;;;;10.10;1.40;;;;;;;20.02;nan;101646.59;6186685;23;20463;-93
2022/06/23 22:51:40;;;;;;;3.83;1.10;;;;;;;20.06;nan;101652.53;6160693;23;20423;-93
2022/06/23 22:54:35;;;;;;;2.90;1.33;;;;;;;20.02;nan;101657.72;6160748;23;20396;-94
2022/06/23 23:01:12;;;;;;;8.33;1.67;;;;;;;19.93;nan;101645.25;6189462;23;20422;-95
2022/06/23 23:04:18;;;;;;;7.03;2.77;;;;;;;19.93;nan;101653.56;6160078;23;20566;-93
2022/06/23 23:10:39;;;;;;;4.13;1.30;;;;;;;19.86;nan;101641.72;6188825;23;20939;-95
2022/06/23 23:13:37;;;;;;;7.93;2.23;;;;;;;19.85;nan;101645.56;6162246;23;20554;-95
2022/06/23 23:16:34;;;;;;;5.60;1.83;;;;;;;19.76;nan;101636.72;6161989;23;20411;-92
2022/06/23 23:19:16;;;;;;;5.37;1.30;;;;;;;19.77;nan;101643.97;6116568;23;20800;-92
2022/06/23 23:25:14;;;;;;;5.20;1.80;;;;;;;19.68;nan;101620.38;6187589;23;20434;-92
2022/06/23 23:27:45;;;;;;;5.33;1.97;;;;;;;19.67;nan;101629.78;6139250;23;20459;-94
2022/06/23 23:30:14;;;;;;;8.80;1.50;;;;;;;19.60;nan;101624.34;6113976;23;20412;-92
2022/06/23 23:33:13;;;;;;;8.53;2.00;;;;;;;19.51;nan;101611.00;6138217;23;20407;-95
2022/06/23 23:35:56;;;;;;;3.57;1.27;;;;;;;19.53;nan;101619.94;6165384;23;20910;-92
2022/06/23 23:39:04;;;;;;;5.93;1.20;;;;;;;19.52;nan;101626.56;6162172;23;20416;-93
2022/06/23 23:41:47;;;;;;;4.53;2.13;;;;;;;19.46;nan;101616.34;6162000;23;20419;-94
2022/06/23 23:44:56;;;;;;;7.00;1.80;;;;;;;19.44;nan;101615.72;6162510;23;20450;-95
2022/06/23 23:47:45;;;;;;;8.80;1.73;;;;;;;19.39;nan;101607.28;6162187;23;20419;-92
2022/06/23 23:57:04;;;;;;;5.40;1.40;;;;;;;19.22;nan;101615.38;6188520;23;20414;-94
2022/06/23 23:59:55;;;;;;;8.70;1.90;;;;;;;19.16;nan;101613.50;6138674;23;20420;-94
